Time;durP1;ratioP1;P1;durP2;ratioP2;P2;SDS_P1;SDS_P2;PMS_P1;PMS_P2;Temp;Humidity;BMP_temperature;BMP_pressure;BME280_temperature;BME280_humidity;BME280_pressure;Samples;Min_cycle;Max_cycle;Signal;HPM_P1;HPM_P2
2022/02/12 00:01:14;;;;;;;4.53;1.25;;;;;;;-0.43;70.07;99187.34;4975786;28;20122;-63
2022/02/12 00:03:39;;;;;;;7.43;1.40;;;;;;;-0.43;70.39;99195.31;4958799;28;20469;-63
2022/02/12 00:06:05;;;;;;;6.05;1.23;;;;;;;-0.44;70.27;99184.75;4975076;28;20098;-63
2022/02/12 00:08:31;;;;;;;7.55;1.20;;;;;;;-0.46;70.08;99184.03;4959116;28;20050;-64
2022/02/12 00:10:57;;;;;;;4.78;1.48;;;;;;;-0.46;70.17;99187.53;4959008;28;20050;-63
2022/02/12 00:13:23;;;;;;;5.72;1.25;;;;;;;-0.47;70.15;99191.13;4942956;28;20135;-61
2022/02/12 00:15:49;;;;;;;6.20;1.23;;;;;;;-0.47;70.48;99193.78;4958901;28;20045;-63
2022/02/12 00:18:16;;;;;;;6.82;1.58;;;;;;;-0.47;70.55;99183.19;4958879;28;20049;-63
2022/02/12 00:20:42;;;;;;;7.75;1.23;;;;;;;-0.51;71.05;99181.66;4990984;28;20054;-63
2022/02/12 00:23:07;;;;;;;9.02;1.48;;;;;;;-0.58;72.78;99177.66;4958937;28;20073;-63
2022/02/12 00:25:34;;;;;;;7.43;1.35;;;;;;;-0.56;73.85;99189.03;4975112;28;20046;-63
2022/02/12 00:28:00;;;;;;;5.60;0.95;;;;;;;-0.56;74.05;99189.03;4991002;28;20398;-63
2022/02/12 00:30:28;;;;;;;6.80;1.50;;;;;;;-0.56;73.70;99183.72;4991629;28;20050;-63
2022/02/12 00:32:54;;;;;;;13.43;1.42;;;;;;;-0.64;75.12;99180.69;4975321;28;20066;-63
2022/02/12 00:35:20;;;;;;;8.15;1.30;;;;;;;-0.63;75.58;99187.69;4990736;28;20061;-63
2022/02/12 00:37:47;;;;;;;8.80;1.33;;;;;;;-0.63;74.69;99183.22;4958647;28;20042;-63
2022/02/12 00:40:13;;;;;;;9.38;1.90;;;;;;;-0.63;73.86;99177.06;4974753;28;20046;-63
2022/02/12 00:42:39;;;;;;;4.75;1.27;;;;;;;-0.61;73.03;99180.50;4974098;28;20104;-63
2022/02/12 00:45:05;;;;;;;5.28;1.27;;;;;;;-0.60;71.87;99179.53;4974592;28;20078;-63
2022/02/12 00:47:31;;;;;;;7.70;1.38;;;;;;;-0.65;71.37;99179.81;4958556;28;20338;-63
2022/02/12 00:49:57;;;;;;;6.32;1.38;;;;;;;-0.59;71.50;99190.06;4974442;28;20062;-62
2022/02/12 00:52:23;;;;;;;8.23;1.33;;;;;;;-0.63;71.44;99172.59;4974495;28;20053;-63
2022/02/12 00:54:48;;;;;;;7.13;1.52;;;;;;;-0.75;71.58;99158.28;4958041;28;20080;-63
2022/02/12 00:57:14;;;;;;;8.05;1.30;;;;;;;-0.57;71.46;99203.25;4974673;28;20049;-61
2022/02/12 00:59:40;;;;;;;8.77;1.38;;;;;;;-0.60;71.80;99192.81;4957965;28;20082;-63
2022/02/12 01:02:06;;;;;;;8.55;1.42;;;;;;;-0.63;71.71;99193.84;4958352;28;20078;-63
2022/02/12 01:04:31;;;;;;;7.15;1.35;;;;;;;-0.61;72.08;99201.72;4990336;28;20086;-64
2022/02/12 01:06:57;;;;;;;6.05;1.10;;;;;;;-0.59;71.62;99194.50;4958158;28;20050;-62
2022/02/12 01:09:23;;;;;;;9.02;1.42;;;;;;;-0.61;72.19;99193.78;4957875;28;20046;-63
2022/02/12 01:11:50;;;;;;;6.93;1.50;;;;;;;-0.62;72.16;99189.38;4974619;28;20058;-63
2022/02/12 01:14:16;;;;;;;8.73;1.60;;;;;;;-0.62;72.67;99192.03;4957665;28;20045;-63
2022/02/12 01:16:42;;;;;;;9.30;2.80;;;;;;;-0.60;73.48;99198.97;4973786;28;20124;-63
2022/02/12 01:19:08;;;;;;;6.20;1.42;;;;;;;-0.64;72.66;99191.28;4958008;28;20081;-63
2022/02/12 01:21:34;;;;;;;6.30;1.50;;;;;;;-0.64;73.25;99183.34;4990560;28;20069;-63
2022/02/12 01:24:00;;;;;;;7.72;1.13;;;;;;;-0.63;73.28;99188.53;4942094;28;20401;-62
2022/02/12 01:26:26;;;;;;;6.97;1.27;;;;;;;-0.65;73.49;99181.63;4974010;28;20051;-61
2022/02/12 01:28:51;;;;;;;8.27;1.30;;;;;;;-0.65;73.84;99182.47;4957883;28;20069;-63
2022/02/12 01:31:17;;;;;;;8.95;1.60;;;;;;;-0.66;74.20;99182.56;4973043;28;20141;-63
2022/02/12 01:33:43;;;;;;;7.22;1.60;;;;;;;-0.70;74.57;99181.03;4957918;28;20076;-64
2022/02/12 01:36:09;;;;;;;7.40;1.65;;;;;;;-0.68;74.82;99187.97;4957555;28;20065;-63
2022/02/12 01:38:35;;;;;;;6.45;1.23;;;;;;;-0.70;75.52;99196.97;4989883;28;20128;-61
2022/02/12 01:41:01;;;;;;;6.63;1.50;;;;;;;-0.73;74.96;99195.38;4957500;28;20046;-63
2022/02/12 01:43:26;;;;;;;6.70;1.52;;;;;;;-0.92;75.91;99171.69;4973222;28;20521;-62
2022/02/12 01:45:52;;;;;;;6.88;2.00;;;;;;;-0.79;75.70;99193.91;4989963;28;20443;-62
2022/02/12 01:48:18;;;;;;;4.90;1.15;;;;;;;-0.73;76.19;99203.31;4957997;28;20140;-62
2022/02/12 01:50:47;;;;;;;7.80;1.50;;;;;;;-0.74;76.14;99196.28;4989842;28;20062;-63
2022/02/12 01:53:13;;;;;;;9.27;1.63;;;;;;;-0.74;76.20;99207.75;4957473;28;20046;-63
2022/02/12 01:55:38;;;;;;;13.35;1.60;;;;;;;-0.80;76.44;99194.88;4973500;28;20089;-61
2022/02/12 01:58:06;;;;;;;7.35;1.23;;;;;;;-0.77;76.97;99196.47;4990928;28;20038;-62
2022/02/12 02:00:35;;;;;;;7.75;1.38;;;;;;;-0.76;76.41;99198.19;4973520;28;20046;-63
2022/02/12 02:03:01;;;;;;;7.68;2.15;;;;;;;-0.77;77.29;99201.78;4974221;28;20042;-62
2022/02/12 02:05:26;;;;;;;8.20;1.90;;;;;;;-0.78;77.37;99200.91;4973425;28;20563;-62
2022/02/12 02:07:53;;;;;;;8.05;1.30;;;;;;;-0.78;77.44;99206.22;4957649;28;20042;-61
2022/02/12 02:10:19;;;;;;;5.10;1.27;;;;;;;-0.75;77.31;99208.72;4957272;28;20502;-63
2022/02/12 02:12:45;;;;;;;7.97;1.40;;;;;;;-0.86;77.97;99192.56;4957470;28;20065;-67
2022/02/12 02:15:11;;;;;;;8.32;1.60;;;;;;;-0.75;77.55;99211.34;4973109;28;20057;-62
2022/02/12 02:17:37;;;;;;;6.28;1.40;;;;;;;-0.73;77.63;99213.94;4957064;28;20050;-61
2022/02/12 02:20:04;;;;;;;8.48;1.40;;;;;;;-0.75;78.46;99218.47;4956851;28;20042;-63
2022/02/12 02:22:40;;;;;;;7.00;1.50;;;;;;;-0.75;78.39;99227.28;4957048;28;20066;-62
2022/02/12 02:25:06;;;;;;;8.98;1.58;;;;;;;-0.77;78.13;99223.00;4989410;28;20477;-63
2022/02/12 02:27:32;;;;;;;9.32;1.85;;;;;;;-0.77;78.81;99217.69;4956973;28;20057;-63
2022/02/12 02:29:57;;;;;;;8.05;1.88;;;;;;;-0.91;78.08;99201.75;4972909;28;20042;-63
2022/02/12 02:32:24;;;;;;;6.65;1.40;;;;;;;-0.76;78.87;99222.94;4973089;28;20054;-62
2022/02/12 02:34:53;;;;;;;7.35;1.45;;;;;;;-0.76;78.69;99227.38;4957073;28;20054;-62
2022/02/12 02:37:19;;;;;;;5.55;1.30;;;;;;;-0.76;79.60;99230.91;4973193;28;20054;-63
2022/02/12 02:39:46;;;;;;;6.45;1.50;;;;;;;-0.81;79.02;99224.13;4989405;28;20055;-63
2022/02/12 02:42:12;;;;;;;7.22;1.40;;;;;;;-0.82;79.35;99225.94;4992196;28;20177;-61
2022/02/12 02:44:38;;;;;;;9.70;1.95;;;;;;;-0.93;79.91;99211.59;4977006;28;20053;-64
2022/02/12 02:47:33;;;;;;;7.60;1.58;;;;;;;-0.79;79.58;99238.19;4976752;28;20050;-63
2022/02/12 02:49:53;;;;;;;10.45;1.90;;;;;;;-0.92;80.18;99219.44;4963280;28;20142;-67
2022/02/12 02:57:50;;;;;;;11.18;1.58;;;;;;;-0.87;81.07;99243.94;4992787;28;20069;-63
2022/02/12 03:00:16;;;;;;;5.90;1.48;;;;;;;-0.85;81.47;99244.69;4960558;28;20038;-63
2022/02/12 03:02:42;;;;;;;11.25;1.55;;;;;;;-0.89;82.30;99242.31;4976034;28;20116;-62
2022/02/12 03:05:08;;;;;;;7.82;1.58;;;;;;;-0.90;82.76;99237.94;4960232;28;20081;-62
2022/02/12 03:07:33;;;;;;;7.90;1.65;;;;;;;-0.93;81.74;99248.75;4994431;28;20053;-64
2022/02/12 03:09:59;;;;;;;9.98;1.70;;;;;;;-0.96;82.20;99239.16;4960290;28;20050;-63
2022/02/12 03:12:25;;;;;;;11.85;1.85;;;;;;;-0.93;82.65;99244.28;4976319;28;20120;-63
2022/02/12 03:14:51;;;;;;;7.68;1.98;;;;;;;-0.90;82.35;99244.09;4945488;28;20145;-64
2022/02/12 03:17:17;;;;;;;10.25;1.80;;;;;;;-0.93;83.03;99244.28;4995431;28;20046;-69
2022/02/12 03:19:42;;;;;;;6.15;1.35;;;;;;;-0.84;83.43;99248.19;4961106;28;20133;-62
2022/02/12 03:22:08;;;;;;;8.85;1.42;;;;;;;-0.86;83.35;99252.75;4960591;28;20439;-62
2022/02/12 03:24:35;;;;;;;7.43;1.83;;;;;;;-0.90;83.47;99241.47;4976808;28;20438;-63
2022/02/12 03:27:01;;;;;;;10.00;1.90;;;;;;;-0.90;83.40;99249.41;4977347;28;20133;-62
2022/02/12 03:29:27;;;;;;;7.80;1.88;;;;;;;-0.91;83.88;99242.41;4944291;28;20113;-64
2022/02/12 03:31:52;;;;;;;12.10;1.67;;;;;;;-0.96;83.92;99239.16;4975764;28;20060;-62
2022/02/12 03:34:18;;;;;;;9.40;2.08;;;;;;;-0.98;84.40;99243.72;4965288;28;20264;-63
2022/02/12 03:36:44;;;;;;;13.05;2.35;;;;;;;-0.96;84.41;99244.47;4978684;28;20041;-62
2022/02/12 03:39:10;;;;;;;9.65;1.90;;;;;;;-0.95;84.53;99240.88;4963030;28;20099;-63
2022/02/12 03:41:36;;;;;;;10.32;1.60;;;;;;;-1.02;84.69;99245.69;4995302;28;20058;-63
2022/02/12 03:44:01;;;;;;;8.63;1.63;;;;;;;-0.99;84.09;99249.94;4978678;28;20414;-64
2022/02/12 03:46:27;;;;;;;7.55;1.52;;;;;;;-0.98;84.60;99256.97;5011091;28;20050;-63
2022/02/12 03:48:53;;;;;;;8.57;1.92;;;;;;;-0.94;84.05;99258.50;4994819;28;20140;-63
2022/02/12 03:51:21;;;;;;;10.65;2.47;;;;;;;-0.88;84.56;99254.63;4994846;28;20073;-63
2022/02/12 03:53:47;;;;;;;9.85;2.03;;;;;;;-0.93;86.91;99256.69;4978248;28;20050;-62
2022/02/12 03:56:16;;;;;;;8.23;1.92;;;;;;;-1.18;90.04;99228.06;4962437;28;20107;-63
2022/02/12 03:58:42;;;;;;;11.13;1.88;;;;;;;-1.14;91.06;99256.13;4973406;28;20074;-63
2022/02/12 04:01:08;;;;;;;6.07;1.85;;;;;;;-1.13;91.37;99257.81;4991481;28;20046;-62
2022/02/12 04:03:34;;;;;;;8.98;2.03;;;;;;;-1.24;92.15;99255.81;4959445;28;20041;-64
2022/02/12 04:05:59;;;;;;;8.18;1.83;;;;;;;-1.20;92.69;99261.81;5008808;28;20050;-65
2022/02/12 04:08:25;;;;;;;7.13;1.98;;;;;;;-1.20;93.46;99262.66;4977153;28;20050;-65
2022/02/12 04:10:52;;;;;;;8.02;1.67;;;;;;;-1.23;93.31;99260.16;5007625;28;20414;-63
2022/02/12 04:13:19;;;;;;;10.43;2.10;;;;;;;-1.24;93.44;99261.97;4990755;28;20046;-63
2022/02/12 04:15:45;;;;;;;9.48;2.17;;;;;;;-1.24;93.27;99263.75;4991361;28;20047;-64
2022/02/12 04:18:12;;;;;;;12.23;2.92;;;;;;;-1.23;92.40;99273.44;4958968;28;20042;-63
2022/02/12 04:20:38;;;;;;;12.40;2.47;;;;;;;-1.24;92.15;99271.72;5007472;28;20057;-63
2022/02/12 04:23:05;;;;;;;12.15;2.20;;;;;;;-1.19;92.09;99266.16;4990905;28;20038;-64
2022/02/12 04:25:31;;;;;;;10.52;2.28;;;;;;;-1.25;92.00;99262.88;4974892;28;20129;-63
2022/02/12 04:27:57;;;;;;;8.43;1.90;;;;;;;-1.18;91.42;99265.19;4990035;28;20154;-63
2022/02/12 04:30:23;;;;;;;7.95;1.90;;;;;;;-1.16;91.09;99273.94;4958505;28;20121;-64
2022/02/12 04:32:49;;;;;;;9.77;2.38;;;;;;;-1.22;91.34;99265.38;4975076;28;20052;-64
2022/02/12 04:35:18;;;;;;;8.88;1.88;;;;;;;-1.13;90.99;99274.63;4975883;28;20042;-64
2022/02/12 04:37:44;;;;;;;12.38;2.50;;;;;;;-1.14;90.90;99285.31;4991485;28;20076;-65
2022/02/12 04:40:11;;;;;;;7.32;2.20;;;;;;;-1.14;90.57;99278.19;4959131;28;20169;-63
2022/02/12 04:42:37;;;;;;;6.75;2.03;;;;;;;-1.12;89.80;99270.16;4991374;28;20050;-63
2022/02/12 04:45:05;;;;;;;8.52;2.10;;;;;;;-1.14;90.27;99285.31;4958859;28;20081;-62
2022/02/12 04:47:31;;;;;;;12.35;2.13;;;;;;;-1.11;90.37;99280.69;4958275;28;20081;-63
2022/02/12 04:49:57;;;;;;;12.98;2.42;;;;;;;-1.11;91.10;99288.63;4958130;28;20053;-63
2022/02/12 04:52:23;;;;;;;10.80;2.38;;;;;;;-1.08;91.14;99284.97;4958479;28;20047;-64
2022/02/12 04:54:49;;;;;;;6.88;1.95;;;;;;;-1.32;92.02;99261.53;4974680;28;20045;-63
2022/02/12 04:57:16;;;;;;;11.07;2.45;;;;;;;-1.22;93.02;99289.22;4974567;28;20435;-64
2022/02/12 04:59:42;;;;;;;11.40;2.63;;;;;;;-1.22;93.60;99291.88;4974143;28;20125;-63
2022/02/12 05:02:08;;;;;;;12.38;2.33;;;;;;;-1.17;94.43;99288.13;4973999;28;20525;-63
2022/02/12 05:04:34;;;;;;;11.70;2.55;;;;;;;-1.17;95.29;99293.41;4957481;28;20157;-63
2022/02/12 05:07:00;;;;;;;11.20;2.63;;;;;;;-1.18;95.89;99297.03;4957381;28;20508;-64
2022/02/12 05:09:26;;;;;;;10.00;2.25;;;;;;;-1.20;96.88;99297.13;4957923;28;20047;-63
2022/02/12 05:11:52;;;;;;;10.10;2.50;;;;;;;-1.28;96.94;99296.66;4974035;28;20054;-64
2022/02/12 05:14:20;;;;;;;10.93;2.55;;;;;;;-1.29;97.78;99293.16;4989869;28;20502;-64
2022/02/12 05:16:46;;;;;;;8.27;2.47;;;;;;;-1.33;97.89;99294.28;4990031;28;20128;-64
2022/02/12 05:19:12;;;;;;;8.77;2.63;;;;;;;-1.28;98.50;99296.66;4973750;28;20054;-63
2022/02/12 05:21:38;;;;;;;12.20;3.17;;;;;;;-1.29;98.00;99301.13;4973922;28;20075;-63
2022/02/12 05:24:04;;;;;;;11.77;2.97;;;;;;;-1.25;98.13;99309.75;4957688;28;20046;-63
2022/02/12 05:26:30;;;;;;;12.18;3.47;;;;;;;-1.22;98.52;99318.41;4957448;28;20283;-63
2022/02/12 05:28:56;;;;;;;14.68;3.70;;;;;;;-1.26;98.33;99311.56;4973896;28;20054;-64
2022/02/12 05:31:22;;;;;;;13.50;3.92;;;;;;;-1.24;98.08;99309.69;4973509;28;20046;-64
2022/02/12 05:33:48;;;;;;;10.27;3.00;;;;;;;-1.15;97.82;99324.22;4973484;28;20200;-63
2022/02/12 05:36:15;;;;;;;12.10;3.25;;;;;;;-1.14;97.78;99314.47;4957568;28;20045;-65
2022/02/12 05:38:41;;;;;;;11.05;3.22;;;;;;;-1.18;98.16;99320.91;4957239;28;20050;-64
2022/02/12 05:41:11;;;;;;;18.50;4.70;;;;;;;-1.17;98.06;99319.94;4973657;28;20057;-64
2022/02/12 05:43:37;;;;;;;11.00;3.80;;;;;;;-1.13;97.86;99324.13;4989577;28;20050;-64
2022/02/12 05:46:04;;;;;;;11.82;3.42;;;;;;;-1.09;98.00;99323.03;4973268;28;20043;-64
2022/02/12 05:48:30;;;;;;;9.88;3.05;;;;;;;-1.07;97.68;99321.16;4957362;28;20076;-64
2022/02/12 05:50:56;;;;;;;11.27;3.28;;;;;;;-1.12;97.79;99315.25;4989631;28;20046;-63
2022/02/12 05:53:23;;;;;;;12.52;3.83;;;;;;;-1.05;98.04;99325.44;4973587;28;20046;-63
2022/02/12 05:55:49;;;;;;;10.85;4.00;;;;;;;-1.07;97.97;99327.31;4957223;28;20057;-63
2022/02/12 05:58:15;;;;;;;10.98;3.88;;;;;;;-1.10;98.39;99324.81;4957486;28;20054;-64
2022/02/12 06:00:41;;;;;;;9.50;3.30;;;;;;;-1.20;98.49;99304.22;4956859;28;20491;-64
2022/02/12 06:03:07;;;;;;;9.80;3.67;;;;;;;-1.04;98.22;99331.59;4957076;28;20046;-64
2022/02/12 06:05:32;;;;;;;14.15;5.05;;;;;;;-0.94;98.08;99338.09;4956820;28;20080;-63
2022/02/12 06:08:04;;;;;;;13.38;3.25;;;;;;;-0.94;97.56;99332.78;4973216;28;20066;-64
2022/02/12 06:10:31;;;;;;;9.68;3.50;;;;;;;-0.82;96.90;99347.16;4957909;28;20090;-64
2022/02/12 06:12:58;;;;;;;15.23;4.00;;;;;;;-0.81;96.27;99338.25;4957258;28;20043;-63
2022/02/12 06:15:24;;;;;;;13.82;3.90;;;;;;;-0.71;95.77;99341.22;4973632;28;20169;-63
2022/02/12 06:17:50;;;;;;;14.07;4.28;;;;;;;-0.64;95.54;99339.94;4959114;28;20057;-64
2022/02/12 06:20:16;;;;;;;9.60;3.75;;;;;;;-0.58;94.19;99339.59;4993275;28;20552;-64
2022/02/12 06:22:42;;;;;;;12.20;4.18;;;;;;;-0.49;94.11;99333.72;4993114;28;20042;-64
2022/02/12 06:25:09;;;;;;;14.98;5.78;;;;;;;-0.53;93.26;99334.84;4976863;28;20049;-65
2022/02/12 06:27:35;;;;;;;16.42;5.20;;;;;;;-0.37;92.37;99343.63;4960571;28;20406;-64
2022/02/12 06:30:01;;;;;;;17.85;5.35;;;;;;;-0.31;91.00;99340.63;4993383;28;20082;-64
2022/02/12 06:32:27;;;;;;;14.95;4.60;;;;;;;-0.17;89.91;99339.81;4960756;28;20089;-64
2022/02/12 06:34:59;;;;;;;14.70;4.53;;;;;;;-0.12;88.23;99343.03;4977009;28;20046;-64
2022/02/12 06:37:25;;;;;;;14.60;3.75;;;;;;;-0.08;88.01;99344.56;4961575;28;20043;-66
2022/02/12 06:39:51;;;;;;;10.50;3.63;;;;;;;0.03;86.26;99338.59;4961061;28;20518;-64
2022/02/12 06:42:17;;;;;;;14.20;3.38;;;;;;;0.10;83.85;99339.09;4961138;28;20056;-66
2022/02/12 06:44:43;;;;;;;10.68;3.33;;;;;;;0.23;81.83;99343.56;4960983;28;20455;-64
2022/02/12 06:47:09;;;;;;;10.55;2.67;;;;;;;0.39;80.19;99339.97;4976991;28;20124;-65
2022/02/12 06:49:35;;;;;;;12.15;2.60;;;;;;;0.62;80.13;99338.53;4961186;28;20494;-65
2022/02/12 06:52:05;;;;;;;9.80;2.65;;;;;;;0.69;79.02;99346.03;4960766;28;20046;-64
2022/02/12 06:54:31;;;;;;;9.10;2.83;;;;;;;0.58;77.50;99348.50;4961183;28;20480;-64
2022/02/12 06:56:58;;;;;;;9.43;2.63;;;;;;;0.67;77.53;99347.94;4945274;28;20054;-64
2022/02/12 06:59:25;;;;;;;7.22;1.90;;;;;;;0.72;74.86;99351.16;4978664;28;20046;-64
2022/02/12 07:01:51;;;;;;;9.50;2.13;;;;;;;0.76;73.17;99348.31;4995559;28;20493;-64
2022/02/12 07:04:16;;;;;;;8.85;2.10;;;;;;;0.39;73.37;99358.56;4960939;28;20081;-65
2022/02/12 07:06:42;;;;;;;15.32;2.85;;;;;;;0.31;73.34;99368.84;4958873;28;20092;-64
2022/02/12 07:09:11;;;;;;;9.70;1.90;;;;;;;0.24;73.04;99369.19;4992026;28;20486;-64
2022/02/12 07:11:37;;;;;;;9.18;2.38;;;;;;;0.39;73.66;99369.22;4960649;28;20054;-64
2022/02/12 07:14:03;;;;;;;9.90;2.15;;;;;;;0.29;72.80;99360.09;4992196;28;20128;-64
2022/02/12 07:16:29;;;;;;;17.02;3.92;;;;;;;0.58;73.05;99369.78;4944175;28;20141;-64
2022/02/12 07:18:55;;;;;;;13.07;3.50;;;;;;;0.67;72.35;99379.84;4959903;28;20573;-64
2022/02/12 07:21:21;;;;;;;15.02;2.95;;;;;;;0.71;70.61;99378.72;4981521;28;20047;-69
2022/02/12 07:23:47;;;;;;;7.88;1.67;;;;;;;0.48;70.42;99379.31;4963294;28;20100;-65
2022/02/12 07:26:13;;;;;;;11.75;2.40;;;;;;;0.80;70.04;99393.22;4946966;28;20075;-64
2022/02/12 07:28:42;;;;;;;9.38;2.15;;;;;;;0.86;68.38;99394.66;4966269;28;20211;-64
2022/02/12 07:31:12;;;;;;;7.80;1.67;;;;;;;0.79;69.02;99377.38;4997300;28;20055;-65
2022/02/12 07:33:38;;;;;;;;;;;;;;;0.88;67.39;99403.44;4975441;28;20641;-64
2022/02/12 07:36:05;;;;;;;10.60;1.90;;;;;;;0.71;68.53;99402.66;4944174;28;19917;-64
2022/02/12 07:38:30;;;;;;;8.13;1.52;;;;;;;0.77;67.28;99395.22;4930512;28;20067;-64
2022/02/12 07:40:56;;;;;;;7.60;1.75;;;;;;;2.60;61.60;99408.91;4965905;28;20034;-64
2022/02/12 07:43:22;;;;;;;7.20;1.95;;;;;;;4.02;55.59;99401.22;4958853;28;20128;-65
2022/02/12 07:45:48;;;;;;;7.00;1.60;;;;;;;7.54;46.82;99397.16;4959573;28;20496;-65
2022/02/12 07:48:14;;;;;;;13.68;2.58;;;;;;;6.39;47.92;99410.75;4964340;28;20089;-69
2022/02/12 07:50:40;;;;;;;8.77;1.75;;;;;;;5.49;48.48;99411.09;4964621;28;20513;-67
2022/02/12 07:53:06;;;;;;;12.27;2.58;;;;;;;7.67;45.01;99413.88;4951415;28;20497;-67
2022/02/12 07:55:32;;;;;;;10.75;2.75;;;;;;;8.47;41.91;99409.28;4943868;28;20126;-67
2022/02/12 07:57:58;;;;;;;13.73;3.00;;;;;;;9.31;40.30;99412.84;4967250;28;20506;-72
2022/02/12 08:00:24;;;;;;;9.48;2.50;;;;;;;8.30;39.65;99426.97;4946839;28;20081;-65
2022/02/12 08:02:50;;;;;;;22.40;4.47;;;;;;;7.40;42.14;99401.09;4966086;28;20119;-65
2022/02/12 08:05:17;;;;;;;6.57;1.67;;;;;;;5.86;45.93;99423.31;4982200;28;20141;-64
2022/02/12 08:07:43;;;;;;;5.93;1.50;;;;;;;5.12;47.76;99426.59;4975589;28;20062;-65
2022/02/12 08:12:56;;;;;;;9.45;2.65;;;;;;;3.58;51.96;99434.78;4961614;28;20084;-65
2022/02/12 08:15:22;;;;;;;7.13;1.80;;;;;;;2.94;52.64;99423.38;4954132;28;20049;-64
2022/02/12 08:17:48;;;;;;;7.00;1.60;;;;;;;3.18;52.61;99446.63;4990816;28;20053;-64
2022/02/12 08:20:14;;;;;;;9.20;2.38;;;;;;;2.45;52.75;99450.84;4950159;28;20049;-64
2022/02/12 08:22:40;;;;;;;8.18;2.13;;;;;;;2.17;53.38;99450.03;4971733;28;20047;-64
2022/02/12 08:25:06;;;;;;;10.63;2.00;;;;;;;2.24;53.91;99461.13;5001113;28;20046;-64
2022/02/12 08:27:33;;;;;;;6.78;1.70;;;;;;;1.76;55.12;99473.25;4973244;28;20077;-65
2022/02/12 08:29:59;;;;;;;7.68;1.92;;;;;;;1.77;56.32;99461.63;4984491;28;20043;-63
2022/02/12 08:32:26;;;;;;;9.35;1.48;;;;;;;1.64;57.13;99466.88;4953854;28;20556;-64
2022/02/12 08:34:52;;;;;;;9.20;1.75;;;;;;;1.58;57.87;99473.47;4969061;28;20201;-64
2022/02/12 08:37:18;;;;;;;7.30;1.70;;;;;;;2.28;55.64;99477.78;4973100;28;20149;-63
2022/02/12 08:39:44;;;;;;;8.43;1.60;;;;;;;2.88;53.93;99477.22;4956778;28;20090;-62
2022/02/12 08:42:10;;;;;;;5.88;1.60;;;;;;;3.38;51.76;99478.13;4957048;28;20056;-63
2022/02/12 08:44:37;;;;;;;8.15;2.13;;;;;;;3.91;51.51;99478.69;4972710;28;20038;-63
2022/02/12 08:47:04;;;;;;;7.30;1.50;;;;;;;3.62;50.99;99479.03;4973071;28;20047;-63
2022/02/12 08:49:30;;;;;;;10.30;1.85;;;;;;;3.36;51.93;99483.59;4969909;28;20091;-63
2022/02/12 08:51:57;;;;;;;8.18;2.40;;;;;;;2.15;55.50;99497.25;4989265;28;20129;-64
2022/02/12 08:54:23;;;;;;;6.95;1.88;;;;;;;2.10;55.62;99461.22;4957701;28;20474;-64
2022/02/12 08:56:49;;;;;;;8.85;1.60;;;;;;;2.29;55.52;99490.16;4956744;28;20050;-64
2022/02/12 08:59:15;;;;;;;8.70;1.77;;;;;;;2.03;54.87;99467.91;4972213;28;20148;-64
2022/02/12 09:01:42;;;;;;;38.28;7.15;;;;;;;2.16;55.35;99496.31;4985243;28;20088;-64
2022/02/12 09:04:11;;;;;;;8.48;1.70;;;;;;;2.11;55.31;99493.09;4990817;28;20049;-64
2022/02/12 09:06:39;;;;;;;7.78;1.70;;;;;;;2.06;56.21;99503.22;4940794;28;20053;-64
2022/02/12 09:09:09;;;;;;;23.95;4.15;;;;;;;2.25;55.57;99510.00;4984975;28;20047;-67
2022/02/12 09:11:38;;;;;;;23.33;4.70;;;;;;;2.13;57.10;99501.84;4956133;28;20038;-64
2022/02/12 09:14:04;;;;;;;18.05;3.00;;;;;;;2.18;55.13;99512.22;4943641;28;20134;-64
2022/02/12 09:16:30;;;;;;;12.88;2.30;;;;;;;2.05;54.59;99497.97;4963309;28;20038;-64
2022/02/12 09:18:56;;;;;;;13.68;2.58;;;;;;;1.65;54.41;99501.44;4964853;28;20042;-65
2022/02/12 09:21:23;;;;;;;9.40;1.90;;;;;;;2.06;54.20;99511.22;4984185;28;20360;-65
2022/02/12 09:23:50;;;;;;;6.43;1.50;;;;;;;2.45;52.97;99509.53;4951416;28;20054;-65
2022/02/12 09:26:19;;;;;;;5.53;1.35;;;;;;;3.15;50.40;99509.16;4957916;28;20475;-62
2022/02/12 09:28:46;;;;;;;7.10;2.55;;;;;;;5.56;45.00;99505.28;4971026;28;20128;-63
2022/02/12 09:31:12;;;;;;;8.05;2.17;;;;;;;8.32;39.28;99506.63;4975846;28;20070;-68
2022/02/12 09:33:38;;;;;;;7.30;2.10;;;;;;;9.54;36.15;99496.97;4979462;28;20074;-67
2022/02/12 09:36:04;;;;;;;6.13;1.80;;;;;;;10.83;34.77;99506.66;4955610;28;20545;-66
2022/02/12 09:38:31;;;;;;;6.82;2.42;;;;;;;12.64;30.63;99511.06;4943067;28;20137;-67
2022/02/12 09:40:57;;;;;;;7.72;1.73;;;;;;;10.82;32.64;99513.09;4967954;28;20053;-68
2022/02/12 09:43:25;;;;;;;8.40;1.70;;;;;;;8.06;37.29;99505.47;4959270;28;20038;-67
2022/02/12 09:46:09;;;;;;;9.80;2.47;;;;;;;5.40;41.66;99519.03;4973610;28;20046;-65
2022/02/12 09:48:36;;;;;;;12.88;2.47;;;;;;;4.61;43.24;99536.81;4957671;28;20057;-68
2022/02/12 09:51:03;;;;;;;7.63;1.60;;;;;;;3.27;44.48;99520.78;4958848;28;20050;-64
2022/02/12 09:53:31;;;;;;;7.72;1.58;;;;;;;2.62;45.30;99527.03;4960351;28;20074;-64
2022/02/12 09:55:58;;;;;;;7.68;1.52;;;;;;;1.93;46.11;99521.81;4967203;28;20050;-64
2022/02/12 09:58:23;;;;;;;4.93;1.17;;;;;;;2.92;44.43;99531.25;4974408;28;20178;-64
2022/02/12 10:00:50;;;;;;;5.50;1.73;;;;;;;2.54;45.92;99530.25;4956265;28;20145;-65
2022/02/12 10:03:16;;;;;;;7.95;1.50;;;;;;;3.60;44.99;99545.09;4970324;28;20034;-64
2022/02/12 10:05:53;;;;;;;6.25;1.73;;;;;;;4.74;41.92;99539.41;4942764;28;20037;-64
2022/02/12 10:08:21;;;;;;;5.93;1.25;;;;;;;5.47;39.80;99533.66;4940786;28;20043;-64
2022/02/12 10:10:49;;;;;;;6.97;1.30;;;;;;;4.57;42.13;99530.84;4967579;28;20042;-64
2022/02/12 10:13:20;;;;;;;5.88;1.42;;;;;;;3.21;45.04;99531.88;4952296;28;20050;-64
2022/02/12 10:15:57;;;;;;;5.20;1.13;;;;;;;3.31;45.00;99530.28;4940065;28;20074;-62
2022/02/12 10:18:24;;;;;;;7.00;1.40;;;;;;;3.89;43.83;99538.63;4971440;28;20073;-63
2022/02/12 10:20:54;;;;;;;6.28;1.38;;;;;;;3.81;43.99;99537.38;4987654;28;20453;-64
2022/02/12 10:23:24;;;;;;;6.45;1.30;;;;;;;3.23;45.99;99536.16;4973131;28;20074;-64
2022/02/12 10:26:03;;;;;;;8.85;1.40;;;;;;;2.95;45.62;99550.59;4942115;28;20046;-64
2022/02/12 10:28:31;;;;;;;6.25;1.50;;;;;;;5.60;39.10;99551.47;4967863;28;20262;-64
2022/02/12 10:30:57;;;;;;;6.32;1.85;;;;;;;8.07;35.66;99555.63;4974535;28;20056;-64
2022/02/12 10:33:31;;;;;;;7.30;2.13;;;;;;;7.90;34.53;99552.63;4986337;28;20059;-64
2022/02/12 10:36:02;;;;;;;8.90;1.70;;;;;;;5.97;36.73;99544.03;4974888;28;20054;-64
2022/02/12 10:38:31;;;;;;;4.90;1.30;;;;;;;5.64;39.46;99555.63;4965933;28;20046;-64
2022/02/12 10:41:12;;;;;;;8.82;2.90;;;;;;;8.29;33.97;99541.94;4974606;28;20117;-64
2022/02/12 10:43:39;;;;;;;5.90;1.80;;;;;;;9.13;31.47;99544.09;4952186;28;20133;-64
2022/02/12 10:46:06;;;;;;;7.35;2.03;;;;;;;10.09;30.71;99552.81;4973582;28;20174;-64
2022/02/12 10:48:36;;;;;;;8.93;2.00;;;;;;;11.09;28.85;99535.59;4984061;28;20142;-65
2022/02/12 10:51:11;;;;;;;5.95;1.48;;;;;;;8.58;31.86;99549.22;4941474;28;20078;-64
2022/02/12 10:54:09;;;;;;;8.20;1.75;;;;;;;8.06;33.84;99543.16;4926268;28;20090;-66
2022/02/12 10:56:50;;;;;;;7.93;1.30;;;;;;;6.39;35.19;99542.31;4980923;28;20049;-63
2022/02/12 10:59:20;;;;;;;7.00;1.77;;;;;;;5.83;36.76;99553.16;4957761;28;20042;-64
2022/02/12 11:01:47;;;;;;;7.90;1.70;;;;;;;4.68;39.67;99554.13;4968540;28;20046;-67
2022/02/12 11:04:15;;;;;;;7.65;1.67;;;;;;;3.98;39.87;99549.50;4976563;28;20077;-67
2022/02/12 11:06:44;;;;;;;7.10;1.35;;;;;;;3.42;41.99;99554.44;4974574;28;20060;-64
2022/02/12 11:09:19;;;;;;;5.95;1.35;;;;;;;3.00;43.24;99553.81;4959214;28;20050;-65
2022/02/12 11:11:45;;;;;;;9.75;1.67;;;;;;;2.74;44.83;99542.22;4981604;28;20050;-62
2022/02/12 11:14:13;;;;;;;7.90;2.63;;;;;;;6.16;38.89;99554.13;4925098;28;20043;-64
2022/02/12 11:16:39;;;;;;;8.73;1.88;;;;;;;8.49;35.07;99556.31;4971942;28;20503;-64
2022/02/12 11:19:06;;;;;;;25.85;6.60;;;;;;;9.53;32.64;99569.97;4959677;28;20047;-63
2022/02/12 11:21:37;;;;;;;9.30;2.97;;;;;;;9.41;32.56;99564.75;4972941;28;20053;-65
2022/02/12 11:24:08;;;;;;;7.75;1.63;;;;;;;5.67;38.13;99552.69;4980696;28;20056;-69
2022/02/12 11:26:46;;;;;;;6.75;1.85;;;;;;;5.90;38.22;99559.75;4959542;28;20069;-68
2022/02/12 11:29:33;;;;;;;8.60;2.70;;;;;;;4.07;42.68;99575.59;4965724;28;20047;-66
2022/02/12 11:32:13;;;;;;;10.60;2.00;;;;;;;3.80;42.04;99583.78;4948741;28;20038;-65
2022/02/12 11:34:56;;;;;;;7.68;2.40;;;;;;;3.86;42.96;99571.78;4992141;28;20037;-65
2022/02/12 11:37:27;;;;;;;12.48;2.15;;;;;;;4.77;40.23;99569.47;4961397;28;20050;-64
2022/02/12 11:40:13;;;;;;;11.43;2.03;;;;;;;5.27;37.53;99553.16;4975862;28;20065;-66
2022/02/12 11:42:44;;;;;;;6.40;1.50;;;;;;;4.52;39.67;99583.84;4928680;28;20132;-65